Terminal Aerodrome Forecast
Issued by NWS

Home | Current Version | Previous Version | Graphics & Text | Print | Product List | Glossary On
Versions: 1 2 3 4 5 6 7 8 9 10 11 12 13 14 15 16 17 18
000
FTUS43 KUNR 200031 AAA
TAFGCC
TAF AMD
KGCC 200031Z 2001/2024 05010G20KT P6SM BKN200
     FM200200 VRB05KT P6SM SCT200
     FM201100 16014KT P6SM SCT250
     FM201500 17023G33KT P6SM BKN250=

USA.gov is the U.S. government's official web portal to all federal, state and local government web resources and services.